Time;durP1;ratioP1;P1;durP2;ratioP2;P2;SDS_P1;SDS_P2;PMS_P1;PMS_P2;Temp;Humidity;BMP_temperature;BMP_pressure;BME280_temperature;BME280_humidity;BME280_pressure;Samples;Min_cycle;Max_cycle;Signal;HPM_P1;HPM_P2
2024/03/20 00:00:15;;;;;;;5.93;1.98;;;12.30;79.20;;;;;;5071600;28;20021;-46
2024/03/20 00:02:41;;;;;;;4.85;1.88;;;12.30;79.30;;;;;;5071638;28;20020;-45
2024/03/20 00:05:07;;;;;;;4.25;2.10;;;12.30;79.30;;;;;;5072128;28;20528;-46
2024/03/20 00:07:33;;;;;;;4.18;2.30;;;12.20;79.40;;;;;;5070224;28;20370;-46
2024/03/20 00:09:59;;;;;;;6.00;1.90;;;12.20;79.50;;;;;;5071624;28;20454;-45
2024/03/20 00:12:26;;;;;;;7.10;2.40;;;12.20;79.50;;;;;;5071859;28;20384;-45
2024/03/20 00:14:52;;;;;;;5.28;2.25;;;12.20;79.60;;;;;;5071833;28;20099;-47
2024/03/20 00:17:18;;;;;;;4.10;2.08;;;12.10;79.60;;;;;;5071900;28;20579;-43
2024/03/20 00:19:43;;;;;;;7.32;2.13;;;12.10;79.70;;;;;;5071334;28;20028;-46
2024/03/20 00:22:09;;;;;;;3.25;2.05;;;12.10;79.70;;;;;;5071518;28;20021;-45
2024/03/20 00:24:34;;;;;;;5.55;2.22;;;12.10;79.80;;;;;;5071494;28;20031;-46
2024/03/20 00:27:00;;;;;;;3.28;1.98;;;12.10;79.90;;;;;;5071701;28;20235;-45
2024/03/20 00:29:27;;;;;;;3.42;2.20;;;12.10;79.90;;;;;;5071676;28;20484;-44
2024/03/20 00:31:54;;;;;;;2.75;2.00;;;12.10;79.90;;;;;;5071485;28;20127;-45
2024/03/20 00:34:21;;;;;;;7.85;2.70;;;12.10;79.90;;;;;;5071351;28;20358;-46
2024/03/20 00:36:46;;;;;;;4.57;2.20;;;12.10;79.90;;;;;;5071212;28;20088;-46
2024/03/20 00:39:12;;;;;;;4.43;2.45;;;12.20;80.00;;;;;;5071364;28;20032;-43
2024/03/20 00:41:38;;;;;;;4.80;2.33;;;12.10;79.90;;;;;;5071387;28;20107;-45
2024/03/20 00:44:04;;;;;;;8.05;2.70;;;12.10;80.00;;;;;;5071580;28;20052;-46
2024/03/20 00:46:30;;;;;;;6.53;2.63;;;12.10;80.00;;;;;;5071588;28;20504;-46
2024/03/20 00:48:55;;;;;;;5.68;2.58;;;12.10;80.10;;;;;;5071426;28;20066;-46
2024/03/20 00:51:21;;;;;;;5.45;2.42;;;12.10;80.10;;;;;;5071075;28;20488;-46
2024/03/20 00:53:46;;;;;;;6.18;2.78;;;12.10;80.20;;;;;;5071253;28;20024;-46
2024/03/20 00:56:12;;;;;;;5.18;2.80;;;12.00;80.30;;;;;;5071074;28;20073;-42
2024/03/20 00:58:38;;;;;;;3.75;2.47;;;12.00;80.30;;;;;;5071080;28;20108;-45
2024/03/20 01:01:03;;;;;;;5.07;2.65;;;12.00;80.40;;;;;;5070842;28;20024;-45
2024/03/20 01:03:29;;;;;;;4.57;2.60;;;12.00;80.50;;;;;;5071342;28;20044;-46
2024/03/20 01:05:55;;;;;;;7.88;2.58;;;12.00;80.50;;;;;;5070951;28;20052;-45
2024/03/20 01:08:21;;;;;;;4.32;2.85;;;12.00;80.60;;;;;;5070996;28;20035;-46
2024/03/20 01:10:47;;;;;;;8.00;3.30;;;12.00;80.70;;;;;;5071213;28;20395;-39
2024/03/20 01:13:13;;;;;;;6.70;3.30;;;12.00;80.70;;;;;;5071474;28;20039;-38
2024/03/20 01:15:38;;;;;;;5.47;3.20;;;12.00;80.80;;;;;;5071467;28;20024;-37
2024/03/20 01:18:04;;;;;;;4.45;3.13;;;11.90;80.80;;;;;;5071230;28;20024;-37
2024/03/20 01:20:30;;;;;;;5.97;3.10;;;12.00;80.90;;;;;;5071196;28;20082;-38
2024/03/20 01:22:57;;;;;;;5.10;2.97;;;11.90;80.90;;;;;;5071290;28;20389;-39
2024/03/20 01:25:23;;;;;;;5.55;2.90;;;12.00;81.10;;;;;;5071171;28;20504;-38
2024/03/20 01:27:48;;;;;;;6.63;3.47;;;11.90;81.10;;;;;;5070859;28;20055;-37
2024/03/20 01:30:14;;;;;;;6.10;3.30;;;12.00;81.10;;;;;;5069716;28;20039;-38
2024/03/20 01:32:40;;;;;;;7.70;3.47;;;12.00;81.20;;;;;;5071123;28;20021;-38
2024/03/20 01:35:06;;;;;;;7.25;3.97;;;12.00;81.90;;;;;;5070917;28;20099;-38
2024/03/20 01:37:31;;;;;;;7.05;3.85;;;11.90;81.20;;;;;;5070670;28;20041;-37
2024/03/20 01:39:57;;;;;;;6.78;3.85;;;11.90;81.30;;;;;;5074662;28;20543;-38
2024/03/20 01:42:23;;;;;;;8.52;3.90;;;12.00;81.40;;;;;;5074426;28;20016;-37
2024/03/20 01:44:48;;;;;;;7.40;4.20;;;11.90;81.50;;;;;;5074454;28;20492;-36
2024/03/20 01:47:14;;;;;;;6.20;3.83;;;11.90;81.60;;;;;;5074437;28;20031;-38
2024/03/20 01:49:40;;;;;;;6.68;4.03;;;11.90;81.60;;;;;;5074354;28;20024;-38
2024/03/20 01:52:07;;;;;;;6.20;3.95;;;11.80;81.70;;;;;;5072911;28;20396;-39
2024/03/20 01:54:33;;;;;;;5.95;4.07;;;11.90;81.80;;;;;;5074490;28;20042;-37
2024/03/20 01:56:59;;;;;;;8.05;4.40;;;11.90;81.80;;;;;;5073003;28;20397;-37
2024/03/20 01:59:25;;;;;;;6.75;3.92;;;11.90;81.80;;;;;;5074526;28;20017;-38
2024/03/20 02:01:50;;;;;;;7.50;4.28;;;11.90;81.80;;;;;;5073480;28;20027;-38
2024/03/20 02:04:16;;;;;;;9.25;4.28;;;11.90;81.80;;;;;;5074024;28;20025;-39
2024/03/20 02:06:41;;;;;;;9.23;4.40;;;12.00;81.80;;;;;;5073667;28;20487;-37
2024/03/20 02:09:07;;;;;;;7.63;4.18;;;12.00;81.80;;;;;;5074116;28;20029;-39
2024/03/20 02:11:33;;;;;;;8.70;4.30;;;12.00;81.80;;;;;;5074045;28;20446;-37
2024/03/20 02:13:59;;;;;;;6.93;4.30;;;12.00;81.80;;;;;;5073946;28;20032;-38
2024/03/20 02:16:26;;;;;;;7.15;4.50;;;12.00;81.80;;;;;;5073752;28;20060;-35
2024/03/20 02:18:52;;;;;;;9.35;4.10;;;12.00;81.90;;;;;;5073914;28;20025;-37
2024/03/20 02:21:20;;;;;;;7.70;4.40;;;12.00;81.90;;;;;;5073877;28;20059;-37
2024/03/20 02:23:46;;;;;;;7.80;4.22;;;12.00;82.00;;;;;;5073657;28;20044;-37
2024/03/20 02:26:12;;;;;;;8.90;4.80;;;12.00;82.00;;;;;;5073854;28;20060;-37
2024/03/20 02:28:39;;;;;;;8.20;4.45;;;12.00;82.10;;;;;;5073600;28;20023;-38
2024/03/20 02:31:06;;;;;;;7.88;4.13;;;12.00;82.20;;;;;;5073631;28;20051;-37
2024/03/20 02:33:32;;;;;;;5.90;3.80;;;12.00;82.20;;;;;;5073893;28;20109;-38
2024/03/20 02:35:58;;;;;;;7.70;4.57;;;12.00;82.30;;;;;;5073376;28;20041;-37
2024/03/20 02:38:26;;;;;;;9.02;4.65;;;12.00;82.30;;;;;;5073348;28;20039;-37
2024/03/20 02:40:54;;;;;;;7.93;4.88;;;12.00;82.40;;;;;;5071703;28;20032;-35
2024/03/20 02:43:20;;;;;;;7.82;4.43;;;12.00;82.40;;;;;;5073798;28;20025;-37
2024/03/20 02:45:46;;;;;;;7.38;4.45;;;12.00;82.30;;;;;;5073325;28;20031;-38
2024/03/20 02:48:13;;;;;;;7.88;4.50;;;12.00;82.30;;;;;;5073214;28;20107;-37
2024/03/20 02:50:40;;;;;;;6.75;4.65;;;12.00;82.40;;;;;;5071846;28;20103;-36
2024/03/20 02:53:05;;;;;;;7.55;4.22;;;11.90;82.40;;;;;;5073160;28;20023;-36
2024/03/20 02:55:32;;;;;;;8.27;4.43;;;11.90;82.50;;;;;;5073380;28;20029;-37
2024/03/20 02:57:58;;;;;;;6.75;4.47;;;12.00;82.50;;;;;;5073044;28;20040;-36
2024/03/20 03:00:24;;;;;;;6.18;3.97;;;12.00;82.50;;;;;;5073041;28;20029;-38
2024/03/20 03:02:49;;;;;;;6.82;4.15;;;12.00;82.50;;;;;;5072790;28;20042;-37
2024/03/20 03:05:15;;;;;;;7.00;4.30;;;12.00;82.50;;;;;;5072731;28;20043;-49
2024/03/20 03:07:40;;;;;;;6.75;4.05;;;12.00;82.40;;;;;;5073232;28;20028;-38
2024/03/20 03:10:08;;;;;;;7.55;4.50;;;12.10;82.40;;;;;;5072880;28;20437;-37
2024/03/20 03:12:34;;;;;;;7.25;4.35;;;12.10;82.30;;;;;;5072706;28;20028;-37
2024/03/20 03:14:59;;;;;;;7.97;4.03;;;12.10;82.30;;;;;;5072648;28;20027;-37
2024/03/20 03:17:25;;;;;;;7.43;4.35;;;12.10;82.30;;;;;;5072799;28;20385;-35
2024/03/20 03:19:51;;;;;;;7.25;4.07;;;12.10;82.30;;;;;;5072592;28;20024;-37
2024/03/20 03:22:17;;;;;;;5.90;4.05;;;12.10;82.30;;;;;;5072610;28;20024;-38
2024/03/20 03:24:43;;;;;;;7.30;3.83;;;12.10;82.40;;;;;;5072471;28;20071;-35
2024/03/20 03:27:08;;;;;;;8.55;4.10;;;12.10;82.40;;;;;;5072623;28;20481;-37
2024/03/20 03:29:34;;;;;;;7.40;4.00;;;12.10;82.50;;;;;;5072597;28;20033;-38
2024/03/20 03:32:00;;;;;;;9.55;4.00;;;12.10;82.60;;;;;;5072579;28;20016;-37
2024/03/20 03:34:25;;;;;;;7.88;3.97;;;12.10;82.60;;;;;;5072487;28;20020;-36
2024/03/20 03:36:51;;;;;;;6.25;4.13;;;12.10;82.60;;;;;;5072233;28;20119;-37
2024/03/20 03:39:16;;;;;;;5.90;3.50;;;12.10;82.50;;;;;;5072279;28;20037;-38
2024/03/20 03:41:42;;;;;;;7.35;3.83;;;12.10;82.50;;;;;;5071850;28;20162;-37
2024/03/20 03:44:07;;;;;;;8.35;4.10;;;12.10;82.60;;;;;;5072269;28;20372;-37
2024/03/20 03:46:33;;;;;;;5.85;4.05;;;12.10;82.60;;;;;;5072117;28;20408;-39
2024/03/20 03:48:59;;;;;;;6.82;3.83;;;12.00;82.70;;;;;;5071978;28;20107;-37
2024/03/20 03:51:24;;;;;;;7.45;3.67;;;12.00;82.80;;;;;;5071836;28;20078;-38
2024/03/20 03:53:50;;;;;;;5.50;3.25;;;11.90;82.90;;;;;;5072184;28;20051;-35
2024/03/20 03:56:15;;;;;;;9.10;4.15;;;11.90;82.90;;;;;;5071859;28;20025;-38
2024/03/20 03:58:41;;;;;;;7.93;3.72;;;11.90;83.00;;;;;;5071877;28;20032;-38
2024/03/20 04:01:08;;;;;;;4.22;3.53;;;11.80;83.10;;;;;;5071357;28;20029;-38
2024/03/20 04:03:33;;;;;;;8.73;3.58;;;11.80;83.30;;;;;;5071759;28;20039;-37
2024/03/20 04:06:00;;;;;;;5.72;3.55;;;11.80;83.30;;;;;;5071792;28;20020;-37
2024/03/20 04:08:26;;;;;;;6.15;3.13;;;11.80;83.30;;;;;;5071685;28;20025;-37
2024/03/20 04:10:51;;;;;;;9.82;3.67;;;11.70;83.20;;;;;;5071896;28;20077;-38
2024/03/20 04:13:17;;;;;;;5.35;3.35;;;11.70;83.30;;;;;;5071842;28;20033;-38
2024/03/20 04:15:44;;;;;;;5.60;3.28;;;11.70;83.30;;;;;;5071716;28;20033;-37
2024/03/20 04:18:09;;;;;;;7.78;3.35;;;11.60;83.30;;;;;;5071657;28;20146;-38
2024/03/20 04:20:35;;;;;;;5.97;3.25;;;11.60;83.40;;;;;;5071399;28;20108;-38
2024/03/20 04:23:02;;;;;;;6.75;3.03;;;11.60;83.50;;;;;;5071708;28;20017;-37
2024/03/20 04:25:28;;;;;;;6.10;3.05;;;11.60;83.50;;;;;;5071798;28;20358;-38
2024/03/20 04:27:55;;;;;;;6.85;3.10;;;11.60;83.50;;;;;;5071634;28;20064;-40
2024/03/20 04:30:21;;;;;;;5.60;3.20;;;11.60;83.50;;;;;;5071830;28;20051;-37
2024/03/20 04:32:47;;;;;;;6.00;2.90;;;11.60;83.50;;;;;;5071601;28;20033;-38
2024/03/20 04:35:13;;;;;;;6.78;2.75;;;11.50;83.60;;;;;;5071424;28;20060;-36
2024/03/20 04:37:39;;;;;;;6.70;2.88;;;11.50;84.20;;;;;;5071580;28;20020;-37
2024/03/20 04:40:06;;;;;;;5.97;2.65;;;11.50;83.70;;;;;;5070023;28;20128;-38
2024/03/20 04:42:35;;;;;;;4.80;2.83;;;11.50;83.70;;;;;;5071354;28;20019;-37
2024/03/20 04:45:01;;;;;;;4.32;2.47;;;11.50;83.70;;;;;;5071628;28;20142;-37
2024/03/20 04:47:27;;;;;;;4.20;2.80;;;11.50;83.60;;;;;;5071576;28;20484;-38
2024/03/20 04:49:52;;;;;;;6.22;2.80;;;11.40;83.70;;;;;;5071516;28;20024;-37
2024/03/20 04:52:18;;;;;;;7.97;2.72;;;11.40;84.30;;;;;;5071353;28;20092;-39
2024/03/20 04:54:44;;;;;;;5.78;2.58;;;11.40;83.80;;;;;;5071446;28;20067;-36
2024/03/20 04:57:09;;;;;;;5.30;2.65;;;11.40;83.80;;;;;;5071060;28;20063;-37
2024/03/20 04:59:35;;;;;;;5.03;2.53;;;11.30;83.70;;;;;;5071537;28;20028;-39
2024/03/20 05:02:00;;;;;;;3.70;2.38;;;11.30;83.80;;;;;;5071579;28;20100;-38
2024/03/20 05:04:26;;;;;;;9.25;2.92;;;11.20;83.80;;;;;;5071311;28;20500;-40
2024/03/20 05:06:51;;;;;;;4.85;2.47;;;11.20;84.40;;;;;;5071182;28;20393;-38
2024/03/20 05:09:17;;;;;;;4.25;2.63;;;11.20;83.80;;;;;;5071326;28;20385;-41
2024/03/20 05:11:43;;;;;;;4.35;2.35;;;11.20;83.80;;;;;;5071220;28;20074;-37
2024/03/20 05:14:09;;;;;;;7.28;2.53;;;11.20;83.90;;;;;;5074125;28;20023;-39
2024/03/20 05:16:34;;;;;;;4.43;2.30;;;11.10;83.90;;;;;;5074997;28;20031;-37
2024/03/20 05:19:00;;;;;;;6.95;2.35;;;11.10;83.90;;;;;;5075106;28;20020;-38
2024/03/20 05:21:26;;;;;;;5.30;2.50;;;11.10;84.00;;;;;;5074664;28;20020;-43
2024/03/20 05:23:51;;;;;;;4.60;2.63;;;11.00;84.00;;;;;;5074923;28;20016;-38
2024/03/20 05:26:17;;;;;;;4.82;2.60;;;11.00;84.00;;;;;;5074735;28;20016;-39
2024/03/20 05:28:43;;;;;;;7.57;2.60;;;11.00;84.00;;;;;;5074712;28;20017;-38
2024/03/20 05:31:24;;;;;;;5.47;2.78;;;11.00;84.00;;;;;;5074701;28;20516;-37
2024/03/20 05:33:50;;;;;;;5.47;2.67;;;10.90;84.00;;;;;;5074515;28;20075;-37
2024/03/20 05:36:15;;;;;;;6.18;2.60;;;11.00;84.10;;;;;;5074346;28;20048;-36
2024/03/20 05:38:41;;;;;;;6.88;2.88;;;10.90;84.10;;;;;;5074507;28;20476;-37
2024/03/20 05:41:06;;;;;;;7.63;2.58;;;10.90;84.10;;;;;;5074288;28;20044;-37
2024/03/20 05:43:32;;;;;;;5.60;2.72;;;10.90;84.00;;;;;;5074388;28;20104;-37
2024/03/20 05:45:57;;;;;;;6.95;2.70;;;10.90;84.00;;;;;;5074411;28;20023;-37
2024/03/20 05:48:23;;;;;;;4.32;2.67;;;10.90;84.00;;;;;;5073289;28;20025;-39
2024/03/20 05:50:49;;;;;;;4.93;2.70;;;10.90;84.00;;;;;;5074212;28;20067;-38
2024/03/20 05:53:14;;;;;;;4.88;2.67;;;10.90;84.00;;;;;;5074344;28;20024;-36
2024/03/20 05:55:40;;;;;;;5.07;2.88;;;10.90;84.00;;;;;;5074279;28;20025;-37
2024/03/20 05:58:05;;;;;;;5.30;2.47;;;10.90;83.90;;;;;;5072938;28;20024;-37
2024/03/20 06:00:31;;;;;;;4.97;2.47;;;11.00;83.90;;;;;;5073896;28;20060;-38
2024/03/20 06:02:57;;;;;;;4.03;2.92;;;11.00;83.90;;;;;;5074195;28;20107;-39
2024/03/20 06:05:22;;;;;;;6.78;3.22;;;11.00;83.90;;;;;;5073980;28;20151;-37
2024/03/20 06:07:48;;;;;;;8.55;2.95;;;11.10;83.90;;;;;;5074221;28;20079;-37
2024/03/20 06:10:14;;;;;;;8.93;2.97;;;11.10;83.80;;;;;;5074126;28;20036;-37
2024/03/20 06:12:40;;;;;;;5.38;2.83;;;11.20;83.80;;;;;;5073722;28;20021;-37
2024/03/20 06:15:08;;;;;;;4.95;3.03;;;11.10;83.70;;;;;;5074212;28;20362;-37
2024/03/20 06:17:33;;;;;;;5.18;3.10;;;11.20;83.80;;;;;;5074052;28;20025;-39
2024/03/20 06:19:59;;;;;;;4.78;3.03;;;11.20;83.80;;;;;;5073959;28;20020;-38
2024/03/20 06:22:25;;;;;;;5.72;2.92;;;11.20;83.80;;;;;;5073769;28;20028;-39
2024/03/20 06:24:51;;;;;;;7.72;2.80;;;11.30;83.80;;;;;;5073608;28;20323;-37
2024/03/20 06:27:17;;;;;;;4.07;2.75;;;11.30;83.90;;;;;;5073617;28;20476;-36
2024/03/20 06:29:43;;;;;;;6.10;2.95;;;11.40;83.90;;;;;;5073791;28;20116;-36
2024/03/20 06:32:09;;;;;;;8.57;3.35;;;11.40;83.80;;;;;;5073858;28;20028;-39
2024/03/20 06:34:35;;;;;;;6.25;3.08;;;11.40;83.80;;;;;;5073813;28;20066;-37
2024/03/20 06:37:00;;;;;;;6.88;3.05;;;11.40;83.80;;;;;;5073290;28;20044;-36
2024/03/20 06:39:27;;;;;;;7.32;3.60;;;11.50;83.80;;;;;;5073646;28;20463;-38
2024/03/20 06:41:52;;;;;;;7.95;3.90;;;11.50;83.70;;;;;;5073531;28;20055;-39
2024/03/20 06:44:19;;;;;;;5.97;3.50;;;11.50;83.70;;;;;;5073476;28;20021;-37
2024/03/20 06:46:45;;;;;;;7.50;3.88;;;11.60;83.70;;;;;;5073524;28;20024;-37
2024/03/20 06:49:11;;;;;;;6.28;3.90;;;11.60;83.70;;;;;;5073406;28;20381;-37
2024/03/20 06:51:38;;;;;;;7.50;3.90;;;11.70;83.70;;;;;;5072906;28;20036;-38
2024/03/20 06:54:11;;;;;;;7.93;4.07;;;11.70;83.70;;;;;;5073411;28;20016;-37
2024/03/20 06:56:37;;;;;;;8.50;4.55;;;11.80;83.70;;;;;;5073735;28;20024;-38
2024/03/20 06:59:02;;;;;;;8.23;4.18;;;11.80;83.60;;;;;;5073167;28;20507;-37
2024/03/20 07:01:28;;;;;;;7.50;4.38;;;11.90;83.60;;;;;;5072894;28;20074;-37
2024/03/20 07:03:54;;;;;;;6.55;4.55;;;11.90;83.50;;;;;;5073186;28;20023;-36
2024/03/20 07:06:20;;;;;;;9.45;4.25;;;12.00;83.50;;;;;;5073444;28;20020;-35
2024/03/20 07:08:45;;;;;;;6.80;3.92;;;12.00;83.50;;;;;;5072913;28;20073;-37
2024/03/20 07:11:11;;;;;;;6.78;3.92;;;12.00;83.50;;;;;;5072534;28;20330;-35
2024/03/20 07:13:36;;;;;;;9.48;4.28;;;12.10;83.50;;;;;;5072674;28;20036;-38
2024/03/20 07:16:02;;;;;;;8.45;4.25;;;12.10;83.40;;;;;;5072586;28;20111;-38
2024/03/20 07:18:28;;;;;;;8.50;4.10;;;12.20;83.30;;;;;;5072486;28;20039;-38
2024/03/20 07:20:53;;;;;;;8.45;4.38;;;12.30;83.30;;;;;;5072162;28;20025;-39
2024/03/20 07:23:19;;;;;;;5.90;3.95;;;12.30;83.20;;;;;;5072805;28;20100;-37
2024/03/20 07:25:44;;;;;;;8.23;3.90;;;12.30;83.00;;;;;;5072404;28;20025;-37
2024/03/20 07:28:12;;;;;;;8.88;4.57;;;12.40;82.90;;;;;;5072584;28;20464;-37
2024/03/20 07:30:38;;;;;;;7.38;4.45;;;12.50;82.80;;;;;;5072298;28;20116;-38
2024/03/20 07:33:04;;;;;;;8.70;4.28;;;12.50;83.30;;;;;;5072260;28;20027;-38
2024/03/20 07:35:47;;;;;;;9.32;4.35;;;12.60;82.60;;;;;;5071635;28;20369;-39
2024/03/20 07:38:13;;;;;;;6.72;4.38;;;12.70;82.50;;;;;;5072449;28;20063;-37
2024/03/20 07:40:42;;;;;;;6.18;4.00;;;12.70;82.30;;;;;;5072189;28;20028;-38
2024/03/20 07:43:08;;;;;;;7.40;4.38;;;12.80;82.20;;;;;;5072123;28;20025;-38
2024/03/20 07:45:34;;;;;;;7.82;4.43;;;12.90;82.00;;;;;;5071935;28;20021;-38
2024/03/20 07:48:00;;;;;;;7.00;4.22;;;13.00;81.90;;;;;;5071997;28;20021;-38
2024/03/20 07:50:26;;;;;;;10.48;4.55;;;13.00;81.70;;;;;;5072194;28;20491;-38
2024/03/20 07:52:53;;;;;;;7.25;4.80;;;13.10;81.60;;;;;;5072249;28;20344;-36
2024/03/20 07:55:19;;;;;;;8.40;4.60;;;13.20;81.50;;;;;;5072239;28;20137;-37
2024/03/20 07:57:45;;;;;;;7.05;4.57;;;13.30;81.30;;;;;;5072183;28;20032;-37
2024/03/20 08:00:15;;;;;;;7.85;4.70;;;13.30;81.10;;;;;;5071854;28;20340;-37
2024/03/20 08:02:45;;;;;;;11.57;5.22;;;13.40;81.00;;;;;;5071766;28;20388;-36
2024/03/20 08:05:14;;;;;;;6.20;4.43;;;13.50;80.80;;;;;;5071755;28;20025;-37
2024/03/20 08:07:40;;;;;;;8.75;4.65;;;13.50;80.70;;;;;;5071797;28;20021;-37
2024/03/20 08:10:08;;;;;;;8.77;4.93;;;13.50;80.50;;;;;;5071516;28;20028;-37
2024/03/20 08:12:33;;;;;;;6.88;4.85;;;13.60;80.50;;;;;;5071730;28;20061;-38
2024/03/20 08:15:00;;;;;;;8.20;5.22;;;13.70;80.30;;;;;;5071962;28;20020;-39
2024/03/20 08:17:25;;;;;;;10.77;5.57;;;13.70;80.10;;;;;;5071576;28;20022;-37
2024/03/20 08:19:51;;;;;;;10.38;6.10;;;13.80;80.00;;;;;;5071391;28;20025;-38
2024/03/20 08:22:16;;;;;;;10.27;5.45;;;13.90;79.90;;;;;;5071561;28;20024;-37
2024/03/20 08:24:43;;;;;;;11.13;5.55;;;13.90;79.80;;;;;;5071527;28;20032;-37
2024/03/20 08:27:09;;;;;;;7.05;5.20;;;13.90;79.70;;;;;;5071639;28;20013;-38
2024/03/20 08:29:35;;;;;;;7.68;4.95;;;14.00;79.60;;;;;;5071373;28;20049;-38
2024/03/20 08:32:01;;;;;;;9.63;5.30;;;14.10;79.50;;;;;;5070421;28;20181;-38
2024/03/20 08:34:27;;;;;;;8.80;5.53;;;14.10;79.30;;;;;;5071586;28;20105;-37
2024/03/20 08:36:52;;;;;;;10.90;5.53;;;14.20;79.20;;;;;;5071240;28;20404;-37
2024/03/20 08:39:18;;;;;;;9.10;5.43;;;14.20;79.00;;;;;;5071475;28;20024;-38
2024/03/20 08:41:44;;;;;;;10.15;5.75;;;14.30;79.00;;;;;;5071060;28;20032;-38
2024/03/20 08:44:10;;;;;;;10.07;6.63;;;14.30;78.90;;;;;;5071816;28;20009;-38
2024/03/20 08:46:41;;;;;;;9.85;6.55;;;14.40;78.80;;;;;;5071389;28;20021;-37
2024/03/20 08:49:06;;;;;;;12.55;6.57;;;14.50;78.70;;;;;;5074470;28;20093;-37
2024/03/20 08:51:32;;;;;;;11.30;7.63;;;14.50;78.60;;;;;;5075692;28;20457;-37
2024/03/20 08:53:58;;;;;;;11.43;7.57;;;14.60;78.40;;;;;;5074152;28;20381;-37
2024/03/20 08:56:24;;;;;;;9.70;6.72;;;14.70;78.30;;;;;;5075407;28;20030;-37
2024/03/20 08:58:52;;;;;;;10.63;7.50;;;14.70;78.80;;;;;;5075809;28;20032;-37
2024/03/20 09:01:18;;;;;;;11.30;6.88;;;14.80;78.10;;;;;;5075070;28;20056;-39
2024/03/20 09:03:44;;;;;;;11.77;7.38;;;14.80;77.90;;;;;;5075137;28;20055;-37
2024/03/20 09:06:09;;;;;;;11.32;7.15;;;14.90;77.80;;;;;;5073746;28;20028;-38
2024/03/20 09:08:35;;;;;;;11.85;6.88;;;15.00;77.70;;;;;;5075164;28;20021;-38
2024/03/20 09:11:01;;;;;;;11.38;7.13;;;15.10;77.50;;;;;;5075064;28;20095;-37
2024/03/20 09:13:29;;;;;;;11.73;7.50;;;15.20;77.40;;;;;;5074976;28;20128;-38
2024/03/20 09:15:55;;;;;;;11.88;7.53;;;15.30;77.20;;;;;;5075125;28;20024;-38
2024/03/20 09:18:20;;;;;;;12.32;7.50;;;15.40;77.00;;;;;;5074925;28;20036;-39
2024/03/20 09:20:46;;;;;;;10.75;7.30;;;15.40;76.90;;;;;;5074672;28;20012;-37
2024/03/20 09:23:12;;;;;;;11.55;7.35;;;15.50;76.80;;;;;;5075150;28;20376;-38
2024/03/20 09:25:38;;;;;;;12.90;7.25;;;15.60;76.70;;;;;;5074824;28;20099;-38
2024/03/20 09:28:04;;;;;;;12.05;7.68;;;15.60;76.50;;;;;;5074803;28;20021;-40
2024/03/20 09:30:29;;;;;;;12.50;7.35;;;15.70;76.50;;;;;;5074585;28;20031;-38
2024/03/20 09:32:57;;;;;;;10.43;7.75;;;15.80;76.50;;;;;;5074648;28;20028;-38
2024/03/20 09:35:22;;;;;;;12.70;7.97;;;15.80;76.30;;;;;;5074473;28;20493;-38
2024/03/20 09:37:48;;;;;;;11.48;8.05;;;15.90;76.20;;;;;;5074557;28;20025;-38
2024/03/20 09:40:17;;;;;;;10.68;7.40;;;15.90;76.10;;;;;;5074339;28;20072;-38
2024/03/20 09:42:43;;;;;;;11.23;7.53;;;16.00;76.00;;;;;;5074619;28;20024;-37
2024/03/20 09:45:13;;;;;;;12.00;7.78;;;16.00;75.90;;;;;;5074905;28;20096;-39
2024/03/20 09:47:39;;;;;;;8.68;7.20;;;16.10;75.80;;;;;;5074345;28;20103;-39
2024/03/20 09:50:11;;;;;;;14.27;8.50;;;16.10;75.70;;;;;;5074349;28;20487;-38
2024/03/20 09:52:37;;;;;;;13.68;8.02;;;16.20;75.60;;;;;;5073078;28;20025;-39
2024/03/20 09:55:15;;;;;;;17.52;8.60;;;16.30;75.50;;;;;;5074241;28;20493;-38
2024/03/20 09:57:47;;;;;;;11.82;8.73;;;16.30;75.20;;;;;;5074378;28;20423;-39
2024/03/20 10:00:16;;;;;;;11.32;7.82;;;16.40;75.00;;;;;;5073451;28;20108;-37
2024/03/20 10:02:49;;;;;;;14.02;8.82;;;16.40;75.00;;;;;;5074013;28;20017;-38
2024/03/20 10:05:15;;;;;;;13.02;8.40;;;16.50;74.90;;;;;;5074125;28;20095;-37
2024/03/20 10:07:43;;;;;;;12.20;7.95;;;16.50;74.80;;;;;;5074335;28;20059;-36
2024/03/20 10:10:13;;;;;;;15.05;8.77;;;16.50;74.70;;;;;;5073908;28;20091;-39
2024/03/20 10:12:45;;;;;;;13.27;7.85;;;16.60;74.60;;;;;;5073969;28;20042;-39
2024/03/20 10:15:11;;;;;;;15.60;8.85;;;16.60;74.50;;;;;;5073892;28;20052;-43
2024/03/20 10:17:38;;;;;;;14.73;8.05;;;16.60;74.50;;;;;;5073793;28;20051;-38
2024/03/20 10:20:21;;;;;;;13.25;8.38;;;16.70;74.40;;;;;;5073773;28;20022;-38
2024/03/20 10:22:47;;;;;;;12.98;8.60;;;16.80;74.20;;;;;;5073798;28;20564;-37
2024/03/20 10:25:16;;;;;;;12.52;8.63;;;16.80;74.20;;;;;;5073818;28;20531;-38
2024/03/20 10:27:45;;;;;;;14.15;9.27;;;16.80;74.10;;;;;;5073572;28;20017;-38
2024/03/20 10:30:20;;;;;;;13.90;9.25;;;16.90;74.00;;;;;;5073596;28;20797;-39
2024/03/20 10:32:48;;;;;;;13.82;8.90;;;16.90;73.90;;;;;;5073563;28;20025;-38
2024/03/20 10:35:18;;;;;;;13.98;8.38;;;16.90;74.00;;;;;;5072202;28;20423;-38
2024/03/20 10:37:44;;;;;;;10.93;8.27;;;16.90;73.80;;;;;;5073465;28;20013;-37
2024/03/20 10:40:16;;;;;;;13.10;8.63;;;17.00;73.80;;;;;;5073177;28;20500;-38
2024/03/20 10:42:46;;;;;;;13.60;8.77;;;17.00;73.70;;;;;;5073438;28;20412;-37
2024/03/20 10:45:13;;;;;;;13.45;8.40;;;17.10;73.70;;;;;;5073383;28;20052;-39
2024/03/20 10:47:40;;;;;;;14.25;9.52;;;17.10;73.60;;;;;;5073240;28;20353;-39
2024/03/20 10:50:19;;;;;;;11.63;9.00;;;17.10;73.60;;;;;;5073156;28;20528;-35
2024/03/20 10:52:49;;;;;;;14.65;9.38;;;17.20;73.60;;;;;;5073289;28;20020;-37
2024/03/20 10:55:19;;;;;;;13.63;9.25;;;17.20;73.50;;;;;;5073130;28;20024;-37
2024/03/20 10:57:49;;;;;;;12.63;8.68;;;17.30;73.50;;;;;;5073162;28;20028;-38
2024/03/20 11:00:17;;;;;;;14.13;9.35;;;17.30;73.40;;;;;;5073065;28;20081;-37
2024/03/20 11:02:44;;;;;;;10.98;7.55;;;17.40;73.50;;;;;;5072915;28;20036;-37
2024/03/20 11:05:35;;;;;;;12.55;7.15;;;17.40;73.30;;;;;;5072927;28;20090;-40
2024/03/20 11:08:01;;;;;;;11.40;7.78;;;17.50;73.00;;;;;;5072908;28;20142;-38
2024/03/20 11:10:31;;;;;;;10.05;6.88;;;17.60;72.90;;;;;;5071768;28;20514;-36
2024/03/20 11:12:58;;;;;;;9.43;6.97;;;17.60;72.60;;;;;;5072872;28;20037;-38
2024/03/20 11:15:31;;;;;;;8.43;6.72;;;17.60;72.60;;;;;;5072732;28;20021;-38
2024/03/20 11:18:00;;;;;;;;;;;17.60;72.50;;;;;;5073237;28;20488;-36
2024/03/20 11:20:32;;;;;;;10.95;7.53;;;17.70;72.60;;;;;;5072480;28;19981;-37
2024/03/20 11:22:58;;;;;;;7.87;5.87;;;17.70;72.60;;;;;;5072731;28;20029;-47
2024/03/20 11:25:23;;;;;;;9.35;6.35;;;17.80;72.60;;;;;;5072820;28;20029;-38
2024/03/20 11:27:50;;;;;;;8.63;6.00;;;17.90;72.40;;;;;;5072666;28;20094;-39
2024/03/20 11:30:16;;;;;;;7.82;6.13;;;17.90;72.20;;;;;;5072474;28;20043;-39
2024/03/20 11:32:41;;;;;;;11.05;6.72;;;17.90;72.00;;;;;;5072587;28;20021;-39
2024/03/20 11:35:13;;;;;;;10.77;6.55;;;17.90;71.90;;;;;;5071933;28;20036;-37
2024/03/20 11:37:40;;;;;;;8.57;6.25;;;18.00;71.70;;;;;;5072445;28;20029;-38
2024/03/20 11:40:09;;;;;;;11.82;6.57;;;18.10;71.70;;;;;;5072092;28;20366;-42
2024/03/20 11:42:34;;;;;;;10.18;6.47;;;18.20;71.50;;;;;;5068027;28;20020;-39
2024/03/20 11:45:00;;;;;;;8.32;5.85;;;18.20;71.40;;;;;;5072284;28;20028;-38
2024/03/20 11:47:25;;;;;;;7.00;6.15;;;18.30;71.20;;;;;;5072114;28;20029;-38
2024/03/20 11:49:51;;;;;;;8.68;5.80;;;18.30;71.20;;;;;;5072226;28;20067;-38
2024/03/20 11:52:17;;;;;;;11.13;6.50;;;18.40;70.90;;;;;;5072414;28;20036;-37
2024/03/20 11:54:45;;;;;;;7.95;5.70;;;18.40;70.80;;;;;;5072141;28;20486;-37
2024/03/20 11:57:12;;;;;;;8.02;5.53;;;18.50;70.70;;;;;;5072131;28;20031;-39
2024/03/20 11:59:39;;;;;;;9.45;5.32;;;18.50;70.60;;;;;;5072038;28;20117;-38
2024/03/20 12:02:09;;;;;;;7.28;5.18;;;18.60;70.40;;;;;;5071849;28;20024;-37
2024/03/20 12:04:35;;;;;;;7.82;4.80;;;18.60;70.10;;;;;;5071900;28;20131;-36
2024/03/20 12:07:01;;;;;;;8.40;5.20;;;18.60;69.50;;;;;;5071948;28;20063;-40
2024/03/20 12:09:26;;;;;;;7.72;5.07;;;18.60;69.20;;;;;;5071895;28;20413;-37
2024/03/20 12:11:52;;;;;;;9.45;4.97;;;18.60;69.40;;;;;;5071686;28;20024;-37
2024/03/20 12:14:18;;;;;;;7.88;4.28;;;18.60;69.30;;;;;;5071763;28;20033;-37
2024/03/20 12:16:44;;;;;;;6.18;4.90;;;18.60;69.30;;;;;;5071915;28;20385;-40
2024/03/20 12:19:09;;;;;;;8.30;5.60;;;18.70;69.80;;;;;;5071944;28;20082;-38
2024/03/20 12:21:35;;;;;;;6.68;5.05;;;18.70;68.80;;;;;;5071209;28;20020;-38
2024/03/20 12:24:01;;;;;;;10.23;5.38;;;18.60;68.90;;;;;;5071724;28;20020;-39
2024/03/20 12:26:28;;;;;;;9.00;6.20;;;18.60;68.80;;;;;;5071716;28;20040;-37
2024/03/20 12:28:54;;;;;;;10.35;6.05;;;18.70;68.90;;;;;;5071668;28;20099;-34
2024/03/20 12:31:21;;;;;;;7.90;5.53;;;18.70;68.90;;;;;;5071588;28;20029;-38
2024/03/20 12:33:51;;;;;;;8.88;5.15;;;18.70;68.90;;;;;;5070279;28;20033;-38
2024/03/20 12:36:21;;;;;;;8.43;5.00;;;18.80;68.80;;;;;;5071625;28;20381;-38
2024/03/20 12:38:52;;;;;;;7.43;4.85;;;18.80;68.70;;;;;;5071470;28;20054;-38
2024/03/20 12:41:21;;;;;;;5.72;4.30;;;18.90;68.50;;;;;;5071410;28;20040;-38